sensor_id;sensor_type;location;lat;lon;timestamp;pressure;altitude;pressure_sealevel;temperature;humidity
64080;BME280;51042;49.696;10.808;2023-04-05T00:01:28;99123.00;;;-2.60;100.00
64080;BME280;51042;49.696;10.808;2023-04-05T00:03:55;99121.31;;;-2.64;100.00
64080;BME280;51042;49.696;10.808;2023-04-05T00:06:22;99112.22;;;-2.72;100.00
64080;BME280;51042;49.696;10.808;2023-04-05T00:08:55;99121.59;;;-2.78;100.00
64080;BME280;51042;49.696;10.808;2023-04-05T00:11:22;99106.78;;;-2.84;100.00
64080;BME280;51042;49.696;10.808;2023-04-05T00:13:47;99102.41;;;-2.89;100.00
64080;BME280;51042;49.696;10.808;2023-04-05T00:16:13;99107.19;;;-2.94;100.00
64080;BME280;51042;49.696;10.808;2023-04-05T00:18:40;99109.22;;;-2.91;100.00
64080;BME280;51042;49.696;10.808;2023-04-05T00:21:10;99098.34;;;-2.95;100.00
64080;BME280;51042;49.696;10.808;2023-04-05T00:23:35;99097.78;;;-3.00;100.00
64080;BME280;51042;49.696;10.808;2023-04-05T00:26:03;99093.97;;;-2.99;100.00
64080;BME280;51042;49.696;10.808;2023-04-05T00:28:28;99093.19;;;-3.00;100.00
64080;BME280;51042;49.696;10.808;2023-04-05T00:30:54;99091.03;;;-3.06;100.00
64080;BME280;51042;49.696;10.808;2023-04-05T00:33:19;99091.34;;;-3.08;100.00
64080;BME280;51042;49.696;10.808;2023-04-05T00:35:44;99080.34;;;-3.15;100.00
64080;BME280;51042;49.696;10.808;2023-04-05T00:38:10;99088.75;;;-3.16;100.00
64080;BME280;51042;49.696;10.808;2023-04-05T00:40:35;99087.50;;;-3.19;100.00
64080;BME280;51042;49.696;10.808;2023-04-05T00:43:01;99084.69;;;-3.22;100.00
64080;BME280;51042;49.696;10.808;2023-04-05T00:45:26;99082.78;;;-3.22;100.00
64080;BME280;51042;49.696;10.808;2023-04-05T00:47:52;99085.47;;;-3.22;100.00
64080;BME280;51042;49.696;10.808;2023-04-05T00:50:17;99077.44;;;-3.22;100.00
64080;BME280;51042;49.696;10.808;2023-04-05T00:52:43;99072.81;;;-3.21;100.00
64080;BME280;51042;49.696;10.808;2023-04-05T00:55:10;99063.84;;;-3.25;100.00
64080;BME280;51042;49.696;10.808;2023-04-05T00:57:35;99067.84;;;-3.32;100.00
64080;BME280;51042;49.696;10.808;2023-04-05T01:00:04;99069.75;;;-3.32;100.00
64080;BME280;51042;49.696;10.808;2023-04-05T01:02:35;99064.69;;;-3.34;100.00
64080;BME280;51042;49.696;10.808;2023-04-05T01:05:54;99066.16;;;-3.36;100.00
64080;BME280;51042;49.696;10.808;2023-04-05T01:10:41;99061.31;;;-3.43;100.00
64080;BME280;51042;49.696;10.808;2023-04-05T01:13:10;99060.19;;;-3.42;100.00
64080;BME280;51042;49.696;10.808;2023-04-05T01:15:36;99051.94;;;-3.37;100.00
64080;BME280;51042;49.696;10.808;2023-04-05T01:18:01;99049.47;;;-3.42;100.00
64080;BME280;51042;49.696;10.808;2023-04-05T01:20:29;99044.41;;;-3.43;100.00
64080;BME280;51042;49.696;10.808;2023-04-05T01:31:28;99042.13;;;-3.53;100.00
64080;BME280;51042;49.696;10.808;2023-04-05T01:34:06;99033.28;;;-3.54;100.00
64080;BME280;51042;49.696;10.808;2023-04-05T01:36:40;99033.28;;;-3.54;100.00
64080;BME280;51042;49.696;10.808;2023-04-05T01:39:10;99035.06;;;-3.58;100.00
64080;BME280;51042;49.696;10.808;2023-04-05T01:41:39;99028.44;;;-3.60;100.00
64080;BME280;51042;49.696;10.808;2023-04-05T01:44:05;99034.13;;;-3.62;100.00
64080;BME280;51042;49.696;10.808;2023-04-05T01:46:30;99027.19;;;-3.63;100.00
64080;BME280;51042;49.696;10.808;2023-04-05T01:48:55;99026.09;;;-3.62;100.00
64080;BME280;51042;49.696;10.808;2023-04-05T01:51:21;99033.81;;;-3.60;100.00
64080;BME280;51042;49.696;10.808;2023-04-05T01:53:46;99030.06;;;-3.68;100.00
64080;BME280;51042;49.696;10.808;2023-04-05T01:56:12;99031.38;;;-3.74;100.00
64080;BME280;51042;49.696;10.808;2023-04-05T01:58:37;99035.16;;;-3.75;100.00
64080;BME280;51042;49.696;10.808;2023-04-05T02:01:02;99035.03;;;-3.79;100.00
64080;BME280;51042;49.696;10.808;2023-04-05T02:03:28;99034.25;;;-3.79;100.00
64080;BME280;51042;49.696;10.808;2023-04-05T02:05:53;99035.69;;;-3.82;100.00
64080;BME280;51042;49.696;10.808;2023-04-05T02:08:18;99044.25;;;-3.88;100.00
64080;BME280;51042;49.696;10.808;2023-04-05T02:10:44;99034.03;;;-3.95;100.00
64080;BME280;51042;49.696;10.808;2023-04-05T02:13:09;99028.19;;;-3.97;100.00
64080;BME280;51042;49.696;10.808;2023-04-05T02:15:35;99030.88;;;-3.97;100.00
64080;BME280;51042;49.696;10.808;2023-04-05T02:18:01;99029.63;;;-3.99;100.00
64080;BME280;51042;49.696;10.808;2023-04-05T02:20:27;99026.50;;;-4.01;100.00
64080;BME280;51042;49.696;10.808;2023-04-05T02:22:54;99033.25;;;-4.04;100.00
64080;BME280;51042;49.696;10.808;2023-04-05T02:25:20;99029.78;;;-4.04;100.00
64080;BME280;51042;49.696;10.808;2023-04-05T02:27:45;99033.13;;;-4.07;100.00
64080;BME280;51042;49.696;10.808;2023-04-05T02:30:11;99030.28;;;-4.11;100.00
64080;BME280;51042;49.696;10.808;2023-04-05T02:32:40;99020.72;;;-4.12;100.00
64080;BME280;51042;49.696;10.808;2023-04-05T02:35:11;99013.00;;;-4.14;100.00
64080;BME280;51042;49.696;10.808;2023-04-05T02:37:38;99018.22;;;-4.17;100.00
64080;BME280;51042;49.696;10.808;2023-04-05T02:40:06;99017.75;;;-4.19;100.00
64080;BME280;51042;49.696;10.808;2023-04-05T02:42:36;99015.84;;;-4.19;100.00
64080;BME280;51042;49.696;10.808;2023-04-05T02:45:01;99014.28;;;-4.20;100.00
64080;BME280;51042;49.696;10.808;2023-04-05T02:47:26;99018.72;;;-4.24;100.00
64080;BME280;51042;49.696;10.808;2023-04-05T02:49:52;99014.16;;;-4.23;100.00
64080;BME280;51042;49.696;10.808;2023-04-05T02:52:17;99013.38;;;-4.24;100.00
64080;BME280;51042;49.696;10.808;2023-04-05T02:54:42;99015.88;;;-4.27;100.00
64080;BME280;51042;49.696;10.808;2023-04-05T02:57:08;99016.06;;;-4.32;100.00
64080;BME280;51042;49.696;10.808;2023-04-05T02:59:37;99011.03;;;-4.34;100.00
64080;BME280;51042;49.696;10.808;2023-04-05T03:02:03;99010.84;;;-4.29;100.00
64080;BME280;51042;49.696;10.808;2023-04-05T03:04:31;99009.09;;;-4.25;100.00
64080;BME280;51042;49.696;10.808;2023-04-05T03:06:59;99009.56;;;-4.23;100.00
64080;BME280;51042;49.696;10.808;2023-04-05T03:09:26;99012.38;;;-4.19;100.00
64080;BME280;51042;49.696;10.808;2023-04-05T03:11:53;99009.72;;;-4.19;100.00
64080;BME280;51042;49.696;10.808;2023-04-05T03:14:18;99013.38;;;-4.24;100.00
64080;BME280;51042;49.696;10.808;2023-04-05T03:16:43;99016.38;;;-4.34;100.00
64080;BME280;51042;49.696;10.808;2023-04-05T03:19:10;99011.69;;;-4.37;100.00
64080;BME280;51042;49.696;10.808;2023-04-05T03:21:36;99013.56;;;-4.37;100.00
64080;BME280;51042;49.696;10.808;2023-04-05T03:24:01;99010.09;;;-4.38;100.00
64080;BME280;51042;49.696;10.808;2023-04-05T03:26:26;99008.84;;;-4.40;100.00
64080;BME280;51042;49.696;10.808;2023-04-05T03:28:52;99014.97;;;-4.40;100.00
64080;BME280;51042;49.696;10.808;2023-04-05T03:31:17;99008.53;;;-4.39;100.00
64080;BME280;51042;49.696;10.808;2023-04-05T03:33:42;99010.75;;;-4.41;100.00
64080;BME280;51042;49.696;10.808;2023-04-05T03:36:08;99007.28;;;-4.41;100.00
64080;BME280;51042;49.696;10.808;2023-04-05T03:38:33;99015.63;;;-4.43;100.00
64080;BME280;51042;49.696;10.808;2023-04-05T03:41:00;99014.84;;;-4.43;100.00
64080;BME280;51042;49.696;10.808;2023-04-05T03:43:26;99012.50;;;-4.45;100.00
64080;BME280;51042;49.696;10.808;2023-04-05T03:45:51;99004.31;;;-4.48;100.00
64080;BME280;51042;49.696;10.808;2023-04-05T03:48:17;99008.72;;;-4.53;100.00
64080;BME280;51042;49.696;10.808;2023-04-05T03:50:44;99014.25;;;-4.58;100.00
64080;BME280;51042;49.696;10.808;2023-04-05T03:53:10;99013.19;;;-4.65;100.00
64080;BME280;51042;49.696;10.808;2023-04-05T03:55:35;98997.75;;;-4.68;100.00
64080;BME280;51042;49.696;10.808;2023-04-05T03:58:01;99010.22;;;-4.72;100.00
64080;BME280;51042;49.696;10.808;2023-04-05T04:00:26;99002.97;;;-4.72;100.00
64080;BME280;51042;49.696;10.808;2023-04-05T04:02:52;99003.59;;;-4.66;100.00
64080;BME280;51042;49.696;10.808;2023-04-05T04:05:18;98999.97;;;-4.70;100.00
64080;BME280;51042;49.696;10.808;2023-04-05T04:07:43;99002.97;;;-4.72;100.00
64080;BME280;51042;49.696;10.808;2023-04-05T04:10:10;99007.06;;;-4.74;100.00
64080;BME280;51042;49.696;10.808;2023-04-05T04:12:37;99006.59;;;-4.76;100.00
64080;BME280;51042;49.696;10.808;2023-04-05T04:15:03;99007.06;;;-4.74;100.00
64080;BME280;51042;49.696;10.808;2023-04-05T04:17:34;99008.34;;;-4.80;100.00
64080;BME280;51042;49.696;10.808;2023-04-05T04:20:00;98999.84;;;-4.82;100.00
64080;BME280;51042;49.696;10.808;2023-04-05T04:22:31;99003.31;;;-4.82;100.00
64080;BME280;51042;49.696;10.808;2023-04-05T04:24:57;99008.38;;;-4.89;100.00
64080;BME280;51042;49.696;10.808;2023-04-05T04:27:28;99014.66;;;-4.85;100.00
64080;BME280;51042;49.696;10.808;2023-04-05T04:29:54;99012.28;;;-4.86;100.00
64080;BME280;51042;49.696;10.808;2023-04-05T04:32:25;99010.56;;;-4.91;100.00
64080;BME280;51042;49.696;10.808;2023-04-05T04:35:11;99015.28;;;-4.88;100.00
64080;BME280;51042;49.696;10.808;2023-04-05T04:37:39;99020.97;;;-4.89;100.00
64080;BME280;51042;49.696;10.808;2023-04-05T04:40:14;99016.06;;;-4.87;100.00
64080;BME280;51042;49.696;10.808;2023-04-05T04:42:45;99011.19;;;-4.85;100.00
64080;BME280;51042;49.696;10.808;2023-04-05T04:45:14;99014.97;;;-4.86;100.00
64080;BME280;51042;49.696;10.808;2023-04-05T04:47:41;99013.88;;;-4.85;100.00
64080;BME280;51042;49.696;10.808;2023-04-05T04:50:07;99016.53;;;-4.85;100.00
64080;BME280;51042;49.696;10.808;2023-04-05T04:52:34;99019.84;;;-4.88;100.00
64080;BME280;51042;49.696;10.808;2023-04-05T04:54:59;99016.84;;;-4.87;100.00
64080;BME280;51042;49.696;10.808;2023-04-05T04:57:26;99017.47;;;-4.81;100.00
64080;BME280;51042;49.696;10.808;2023-04-05T04:59:52;99016.53;;;-4.77;100.00
64080;BME280;51042;49.696;10.808;2023-04-05T05:02:17;99018.88;;;-4.75;100.00
64080;BME280;51042;49.696;10.808;2023-04-05T05:04:47;99018.38;;;-4.69;100.00
64080;BME280;51042;49.696;10.808;2023-04-05T05:07:13;99016.97;;;-4.66;100.00
64080;BME280;51042;49.696;10.808;2023-04-05T05:09:38;99024.03;;;-4.62;100.00
64080;BME280;51042;49.696;10.808;2023-04-05T05:12:04;99022.91;;;-4.52;100.00
64080;BME280;51042;49.696;10.808;2023-04-05T05:14:29;99027.13;;;-4.42;100.00
64080;BME280;51042;49.696;10.808;2023-04-05T05:16:54;99028.97;;;-4.34;100.00
64080;BME280;51042;49.696;10.808;2023-04-05T05:19:22;99021.34;;;-4.15;100.00
64080;BME280;51042;49.696;10.808;2023-04-05T05:21:48;99034.31;;;-3.67;100.00
64080;BME280;51042;49.696;10.808;2023-04-05T05:24:14;99031.81;;;-2.89;100.00
64080;BME280;51042;49.696;10.808;2023-04-05T05:26:39;99026.69;;;-1.76;100.00
64080;BME280;51042;49.696;10.808;2023-04-05T05:29:05;99036.78;;;-0.65;90.96
64080;BME280;51042;49.696;10.808;2023-04-05T05:31:30;99033.53;;;0.55;81.42
64080;BME280;51042;49.696;10.808;2023-04-05T05:33:57;99032.72;;;1.70;74.89
64080;BME280;51042;49.696;10.808;2023-04-05T05:36:23;99031.75;;;2.30;71.38
64080;BME280;51042;49.696;10.808;2023-04-05T05:38:49;99030.78;;;2.72;68.79
64080;BME280;51042;49.696;10.808;2023-04-05T05:41:16;99028.63;;;3.14;67.71
64080;BME280;51042;49.696;10.808;2023-04-05T05:43:42;99023.59;;;3.50;64.23
64080;BME280;51042;49.696;10.808;2023-04-05T05:46:07;99027.94;;;3.24;64.59
64080;BME280;51042;49.696;10.808;2023-04-05T05:48:33;99021.03;;;3.27;64.50
64080;BME280;51042;49.696;10.808;2023-04-05T05:50:58;99030.06;;;3.79;63.62
64080;BME280;51042;49.696;10.808;2023-04-05T05:53:33;99029.59;;;3.33;61.73
64080;BME280;51042;49.696;10.808;2023-04-05T05:55:58;99027.91;;;1.82;66.49
64080;BME280;51042;49.696;10.808;2023-04-05T05:58:24;99027.84;;;0.40;71.95
64080;BME280;51042;49.696;10.808;2023-04-05T06:00:49;99033.53;;;-0.43;77.39
64080;BME280;51042;49.696;10.808;2023-04-05T06:03:15;99042.06;;;-0.85;81.03
64080;BME280;51042;49.696;10.808;2023-04-05T06:05:41;99038.72;;;-1.21;83.24
64080;BME280;51042;49.696;10.808;2023-04-05T06:08:15;99039.88;;;-1.47;85.52
64080;BME280;51042;49.696;10.808;2023-04-05T06:10:40;99044.75;;;-1.77;87.08
64080;BME280;51042;49.696;10.808;2023-04-05T06:13:06;99043.63;;;-1.88;88.72
64080;BME280;51042;49.696;10.808;2023-04-05T06:15:31;99042.50;;;-1.99;90.51
64080;BME280;51042;49.696;10.808;2023-04-05T06:17:56;99037.94;;;-1.98;92.11
64080;BME280;51042;49.696;10.808;2023-04-05T06:20:22;99034.13;;;-1.85;92.85
64080;BME280;51042;49.696;10.808;2023-04-05T06:22:47;99044.19;;;-1.82;93.06
64080;BME280;51042;49.696;10.808;2023-04-05T06:25:12;99047.09;;;-1.87;94.21
64080;BME280;51042;49.696;10.808;2023-04-05T06:27:38;99039.38;;;-1.77;93.38
64080;BME280;51042;49.696;10.808;2023-04-05T06:30:03;99040.25;;;-1.73;92.17
64080;BME280;51042;49.696;10.808;2023-04-05T06:32:29;99040.47;;;-1.66;91.51
64080;BME280;51042;49.696;10.808;2023-04-05T06:34:54;99041.25;;;-1.53;91.19
64080;BME280;51042;49.696;10.808;2023-04-05T06:37:20;99044.38;;;-1.51;91.52
64080;BME280;51042;49.696;10.808;2023-04-05T06:39:45;99036.53;;;-1.44;91.47
64080;BME280;51042;49.696;10.808;2023-04-05T06:42:10;99040.09;;;-1.40;90.74
64080;BME280;51042;49.696;10.808;2023-04-05T06:44:36;99045.78;;;-1.29;90.37
64080;BME280;51042;49.696;10.808;2023-04-05T06:47:01;99039.50;;;-1.21;89.09
64080;BME280;51042;49.696;10.808;2023-04-05T06:49:28;99037.44;;;-1.12;87.87
64080;BME280;51042;49.696;10.808;2023-04-05T06:51:54;99038.97;;;-0.99;85.63
64080;BME280;51042;49.696;10.808;2023-04-05T06:54:19;99033.09;;;-0.89;85.32
64080;BME280;51042;49.696;10.808;2023-04-05T06:56:47;99038.41;;;-0.76;83.60
64080;BME280;51042;49.696;10.808;2023-04-05T06:59:12;99037.50;;;-0.53;83.33
64080;BME280;51042;49.696;10.808;2023-04-05T07:01:38;99035.19;;;-0.38;83.13
64080;BME280;51042;49.696;10.808;2023-04-05T07:04:03;99036.66;;;-0.41;81.73
64080;BME280;51042;49.696;10.808;2023-04-05T07:06:28;99033.03;;;-0.33;82.23
64080;BME280;51042;49.696;10.808;2023-04-05T07:08:53;99030.25;;;-0.21;79.58
64080;BME280;51042;49.696;10.808;2023-04-05T07:11:19;99034.78;;;-0.25;79.69
64080;BME280;51042;49.696;10.808;2023-04-05T07:13:45;99029.91;;;-0.19;79.53
64080;BME280;51042;49.696;10.808;2023-04-05T07:16:10;99029.72;;;0.05;79.28
64080;BME280;51042;49.696;10.808;2023-04-05T07:18:36;99021.94;;;0.19;77.70
64080;BME280;51042;49.696;10.808;2023-04-05T07:21:01;99015.06;;;0.22;76.60
64080;BME280;51042;49.696;10.808;2023-04-05T07:23:28;99018.34;;;0.31;74.88
64080;BME280;51042;49.696;10.808;2023-04-05T07:25:54;99017.69;;;0.53;72.80
64080;BME280;51042;49.696;10.808;2023-04-05T07:28:24;99014.69;;;0.39;73.08
64080;BME280;51042;49.696;10.808;2023-04-05T07:30:50;99014.41;;;0.44;74.35
64080;BME280;51042;49.696;10.808;2023-04-05T07:33:15;99012.81;;;0.78;72.93
64080;BME280;51042;49.696;10.808;2023-04-05T07:35:41;99013.09;;;0.92;71.12
64080;BME280;51042;49.696;10.808;2023-04-05T07:38:06;99012.63;;;1.06;70.55
64080;BME280;51042;49.696;10.808;2023-04-05T07:40:32;99010.91;;;0.98;71.44
64080;BME280;51042;49.696;10.808;2023-04-05T07:42:57;99006.13;;;1.10;71.74
64080;BME280;51042;49.696;10.808;2023-04-05T07:45:23;99013.94;;;1.57;71.65
64080;BME280;51042;49.696;10.808;2023-04-05T07:47:49;99018.41;;;1.69;70.80
64080;BME280;51042;49.696;10.808;2023-04-05T07:50:14;99016.06;;;1.90;69.42
64080;BME280;51042;49.696;10.808;2023-04-05T07:52:40;99016.94;;;1.98;67.43
64080;BME280;51042;49.696;10.808;2023-04-05T07:55:06;99024.66;;;2.22;67.19
64080;BME280;51042;49.696;10.808;2023-04-05T07:57:33;99022.56;;;2.38;66.48
64080;BME280;51042;49.696;10.808;2023-04-05T07:59:58;99025.28;;;2.38;66.53
64080;BME280;51042;49.696;10.808;2023-04-05T08:02:23;99016.22;;;2.27;65.99
64080;BME280;51042;49.696;10.808;2023-04-05T08:04:49;99017.19;;;2.68;66.73
64080;BME280;51042;49.696;10.808;2023-04-05T08:07:14;99021.88;;;2.71;64.62
64080;BME280;51042;49.696;10.808;2023-04-05T08:09:40;99017.97;;;2.69;65.00
64080;BME280;51042;49.696;10.808;2023-04-05T08:12:05;99022.44;;;2.84;67.05
64080;BME280;51042;49.696;10.808;2023-04-05T08:14:31;99026.09;;;3.32;63.95
64080;BME280;51042;49.696;10.808;2023-04-05T08:16:56;99028.94;;;3.46;64.83
64080;BME280;51042;49.696;10.808;2023-04-05T08:19:22;99024.47;;;3.61;63.46
64080;BME280;51042;49.696;10.808;2023-04-05T08:21:47;99012.84;;;3.64;60.80
64080;BME280;51042;49.696;10.808;2023-04-05T08:24:12;99012.63;;;3.83;61.05
64080;BME280;51042;49.696;10.808;2023-04-05T08:26:37;99016.72;;;4.07;60.59
64080;BME280;51042;49.696;10.808;2023-04-05T08:29:03;99008.75;;;4.28;61.53
64080;BME280;51042;49.696;10.808;2023-04-05T08:31:29;99004.91;;;4.36;54.67
64080;BME280;51042;49.696;10.808;2023-04-05T08:33:54;99010.25;;;4.22;58.77
64080;BME280;51042;49.696;10.808;2023-04-05T08:36:19;99006.03;;;4.32;53.44
64080;BME280;51042;49.696;10.808;2023-04-05T08:38:45;99002.66;;;4.49;52.75
64080;BME280;51042;49.696;10.808;2023-04-05T08:41:16;98996.00;;;4.39;51.01
64080;BME280;51042;49.696;10.808;2023-04-05T08:46:14;98998.28;;;5.13;50.26
64080;BME280;51042;49.696;10.808;2023-04-05T08:48:41;98998.66;;;5.05;48.50
64080;BME280;51042;49.696;10.808;2023-04-05T08:51:06;99001.19;;;4.62;48.40
64080;BME280;51042;49.696;10.808;2023-04-05T08:53:35;99003.66;;;4.88;50.40
64080;BME280;51042;49.696;10.808;2023-04-05T08:56:01;99009.16;;;5.13;51.37
64080;BME280;51042;49.696;10.808;2023-04-05T08:58:27;99004.63;;;5.53;50.79
64080;BME280;51042;49.696;10.808;2023-04-05T09:00:53;99001.88;;;5.56;48.48
64080;BME280;51042;49.696;10.808;2023-04-05T09:03:21;99000.38;;;6.15;47.72
64080;BME280;51042;49.696;10.808;2023-04-05T09:05:48;99008.94;;;6.39;47.17
64080;BME280;51042;49.696;10.808;2023-04-05T09:08:15;98999.56;;;6.50;46.06
64080;BME280;51042;49.696;10.808;2023-04-05T09:10:41;98998.00;;;6.60;45.87
64080;BME280;51042;49.696;10.808;2023-04-05T09:13:07;98995.94;;;6.92;45.86
64080;BME280;51042;49.696;10.808;2023-04-05T09:15:35;99001.13;;;6.51;43.39
64080;BME280;51042;49.696;10.808;2023-04-05T09:18:01;98999.22;;;5.78;43.86
64080;BME280;51042;49.696;10.808;2023-04-05T09:20:27;98995.28;;;5.57;43.92
64080;BME280;51042;49.696;10.808;2023-04-05T09:22:52;98997.66;;;5.84;43.26
64080;BME280;51042;49.696;10.808;2023-04-05T09:25:39;98995.31;;;5.75;42.88
64080;BME280;51042;49.696;10.808;2023-04-05T09:28:06;98994.91;;;6.47;44.26
64080;BME280;51042;49.696;10.808;2023-04-05T09:30:33;98982.38;;;6.64;41.58
64080;BME280;51042;49.696;10.808;2023-04-05T09:33:01;98993.75;;;6.20;42.01
64080;BME280;51042;49.696;10.808;2023-04-05T09:35:27;98982.78;;;6.63;43.39
64080;BME280;51042;49.696;10.808;2023-04-05T09:37:56;98986.19;;;7.64;42.66
64080;BME280;51042;49.696;10.808;2023-04-05T09:40:23;98988.91;;;7.64;41.27
64080;BME280;51042;49.696;10.808;2023-04-05T09:42:49;98979.13;;;7.05;41.86
64080;BME280;51042;49.696;10.808;2023-04-05T09:45:15;98982.38;;;6.68;42.53
64080;BME280;51042;49.696;10.808;2023-04-05T09:47:42;98982.13;;;6.12;42.42
64080;BME280;51042;49.696;10.808;2023-04-05T09:50:18;98975.06;;;5.69;43.67
64080;BME280;51042;49.696;10.808;2023-04-05T09:52:44;98980.13;;;5.70;44.15
64080;BME280;51042;49.696;10.808;2023-04-05T09:55:10;98973.16;;;5.84;43.82
64080;BME280;51042;49.696;10.808;2023-04-05T09:57:36;98978.13;;;6.56;44.52
64080;BME280;51042;49.696;10.808;2023-04-05T10:00:04;98985.13;;;6.61;43.87
64080;BME280;51042;49.696;10.808;2023-04-05T10:02:36;98987.06;;;6.56;43.02
64080;BME280;51042;49.696;10.808;2023-04-05T10:05:07;98984.00;;;6.40;43.91
64080;BME280;51042;49.696;10.808;2023-04-05T10:07:43;98986.38;;;6.31;42.80
64080;BME280;51042;49.696;10.808;2023-04-05T10:10:12;98976.66;;;5.91;45.52
64080;BME280;51042;49.696;10.808;2023-04-05T10:12:40;98977.81;;;6.11;42.23
64080;BME280;51042;49.696;10.808;2023-04-05T10:15:09;98977.41;;;5.81;41.88
64080;BME280;51042;49.696;10.808;2023-04-05T10:17:37;98976.66;;;6.02;42.77
64080;BME280;51042;49.696;10.808;2023-04-05T10:26:00;98973.88;;;5.49;42.30
64080;BME280;51042;49.696;10.808;2023-04-05T10:28:09;98963.75;;;5.28;43.07
64080;BME280;51042;49.696;10.808;2023-04-05T10:30:39;98972.16;;;4.87;43.70
64080;BME280;51042;49.696;10.808;2023-04-05T10:33:23;98962.47;;;4.93;45.07
64080;BME280;51042;49.696;10.808;2023-04-05T10:36:06;98961.78;;;5.28;43.95
64080;BME280;51042;49.696;10.808;2023-04-05T10:41:23;98959.50;;;5.41;43.84
64080;BME280;51042;49.696;10.808;2023-04-05T10:43:49;98955.59;;;5.49;43.16
64080;BME280;51042;49.696;10.808;2023-04-05T10:46:18;98957.19;;;5.54;42.94
64080;BME280;51042;49.696;10.808;2023-04-05T10:48:48;98961.06;;;5.42;43.40
64080;BME280;51042;49.696;10.808;2023-04-05T10:51:23;98955.19;;;5.44;43.05
64080;BME280;51042;49.696;10.808;2023-04-05T10:53:50;98951.72;;;6.28;42.96
64080;BME280;51042;49.696;10.808;2023-04-05T10:56:16;98951.56;;;7.51;40.43
64080;BME280;51042;49.696;10.808;2023-04-05T10:58:43;98950.66;;;8.12;39.69
64080;BME280;51042;49.696;10.808;2023-04-05T11:01:10;98953.97;;;7.93;37.82
64080;BME280;51042;49.696;10.808;2023-04-05T11:06:29;98946.03;;;8.06;39.70
64080;BME280;51042;49.696;10.808;2023-04-05T11:09:00;98951.84;;;8.11;41.22
64080;BME280;51042;49.696;10.808;2023-04-05T11:11:38;98952.88;;;8.66;39.95
64080;BME280;51042;49.696;10.808;2023-04-05T11:14:21;98937.00;;;8.87;38.85
64080;BME280;51042;49.696;10.808;2023-04-05T11:16:51;98940.31;;;8.38;39.87
64080;BME280;51042;49.696;10.808;2023-04-05T11:19:20;98936.88;;;7.86;40.23
64080;BME280;51042;49.696;10.808;2023-04-05T11:22:11;98944.78;;;7.73;40.69
64080;BME280;51042;49.696;10.808;2023-04-05T11:24:51;98934.00;;;8.00;41.38
64080;BME280;51042;49.696;10.808;2023-04-05T11:27:27;98929.03;;;8.32;38.59
64080;BME280;51042;49.696;10.808;2023-04-05T11:29:54;98937.34;;;7.73;40.72
64080;BME280;51042;49.696;10.808;2023-04-05T11:32:20;98939.66;;;8.19;40.42
64080;BME280;51042;49.696;10.808;2023-04-05T11:34:59;98927.53;;;7.28;40.01
64080;BME280;51042;49.696;10.808;2023-04-05T11:40:33;98918.03;;;6.84;40.94
64080;BME280;51042;49.696;10.808;2023-04-05T11:43:00;98926.94;;;6.95;40.10
64080;BME280;51042;49.696;10.808;2023-04-05T11:45:31;98916.13;;;7.44;38.97
64080;BME280;51042;49.696;10.808;2023-04-05T11:47:59;98919.41;;;7.72;38.76
64080;BME280;51042;49.696;10.808;2023-04-05T11:50:35;98916.13;;;7.44;38.32
64080;BME280;51042;49.696;10.808;2023-04-05T11:53:15;98916.00;;;7.03;38.91
64080;BME280;51042;49.696;10.808;2023-04-05T11:55:45;98912.00;;;7.18;40.06
64080;BME280;51042;49.696;10.808;2023-04-05T11:58:17;98909.59;;;7.78;38.30
64080;BME280;51042;49.696;10.808;2023-04-05T12:00:45;98905.19;;;8.29;36.76
64080;BME280;51042;49.696;10.808;2023-04-05T12:03:20;98905.97;;;8.30;38.32
64080;BME280;51042;49.696;10.808;2023-04-05T12:05:49;98898.94;;;8.66;39.43
64080;BME280;51042;49.696;10.808;2023-04-05T12:08:16;98889.50;;;9.01;37.30
64080;BME280;51042;49.696;10.808;2023-04-05T12:10:42;98895.75;;;9.01;37.56
64080;BME280;51042;49.696;10.808;2023-04-05T12:13:07;98898.41;;;8.78;39.02
64080;BME280;51042;49.696;10.808;2023-04-05T12:15:36;98895.63;;;9.35;37.19
64080;BME280;51042;49.696;10.808;2023-04-05T12:18:04;98896.13;;;8.73;36.44
64080;BME280;51042;49.696;10.808;2023-04-05T12:20:36;98882.59;;;9.43;36.48
64080;BME280;51042;49.696;10.808;2023-04-05T12:23:02;98883.72;;;10.15;37.15
64080;BME280;51042;49.696;10.808;2023-04-05T12:25:28;98882.19;;;10.93;35.80
64080;BME280;51042;49.696;10.808;2023-04-05T12:27:53;98884.47;;;11.15;35.09
64080;BME280;51042;49.696;10.808;2023-04-05T12:30:19;98879.69;;;11.51;33.25
64080;BME280;51042;49.696;10.808;2023-04-05T12:32:49;98881.41;;;9.71;34.27
64080;BME280;51042;49.696;10.808;2023-04-05T12:35:16;98876.00;;;9.40;35.53
64080;BME280;51042;49.696;10.808;2023-04-05T12:37:49;98871.81;;;8.79;36.32
64080;BME280;51042;49.696;10.808;2023-04-05T12:40:19;98871.97;;;10.18;36.68
64080;BME280;51042;49.696;10.808;2023-04-05T12:42:46;98869.38;;;10.08;33.71
64080;BME280;51042;49.696;10.808;2023-04-05T12:45:11;98865.72;;;10.14;35.46
64080;BME280;51042;49.696;10.808;2023-04-05T12:47:47;98859.81;;;11.11;33.03
64080;BME280;51042;49.696;10.808;2023-04-05T12:50:15;98857.56;;;9.45;34.14
64080;BME280;51042;49.696;10.808;2023-04-05T12:52:52;98857.78;;;9.54;35.93
64080;BME280;51042;49.696;10.808;2023-04-05T12:55:18;98853.22;;;9.20;34.66
64080;BME280;51042;49.696;10.808;2023-04-05T12:57:45;98849.84;;;9.36;35.61
64080;BME280;51042;49.696;10.808;2023-04-05T13:00:13;98847.22;;;10.42;35.31
64080;BME280;51042;49.696;10.808;2023-04-05T13:02:39;98842.72;;;9.89;34.63
64080;BME280;51042;49.696;10.808;2023-04-05T13:05:04;98846.66;;;9.64;36.72
64080;BME280;51042;49.696;10.808;2023-04-05T13:07:30;98843.44;;;10.12;34.32
64080;BME280;51042;49.696;10.808;2023-04-05T13:09:55;98838.38;;;10.11;33.53
64080;BME280;51042;49.696;10.808;2023-04-05T13:12:20;98836.22;;;10.42;35.24
64080;BME280;51042;49.696;10.808;2023-04-05T13:14:46;98835.38;;;11.17;36.69
64080;BME280;51042;49.696;10.808;2023-04-05T13:17:11;98832.72;;;11.29;32.72
64080;BME280;51042;49.696;10.808;2023-04-05T13:19:36;98813.50;;;9.78;33.67